createdAt,value
2023-04-18T00:00:13.896Z,8.04
2023-04-18T00:04:23.206Z,8.00
2023-04-18T00:08:05.033Z,7.99
2023-04-18T00:11:39.881Z,8.00
2023-04-18T00:15:12.037Z,8.04
2023-04-18T00:18:49.959Z,8.06
2023-04-18T00:22:35.887Z,8.10
2023-04-18T00:26:06.830Z,8.14
2023-04-18T00:29:44.877Z,8.20
2023-04-18T00:33:34.939Z,8.26
2023-04-18T00:36:57.927Z,8.32
2023-04-18T00:40:36.188Z,8.39
2023-04-18T00:44:19.919Z,8.48
2023-04-18T00:48:36.902Z,8.58
2023-04-18T00:56:10.122Z,8.78
2023-04-18T00:59:49.987Z,8.91
2023-04-18T01:07:22.921Z,9.08
2023-04-18T01:11:02.965Z,9.13
2023-04-18T01:14:40.016Z,9.11
2023-04-18T01:18:04.755Z,9.06
2023-04-18T01:22:16.953Z,8.99
2023-04-18T01:25:38.766Z,8.92
2023-04-18T01:29:06.951Z,8.84
2023-04-18T01:32:42.038Z,8.77
2023-04-18T01:36:27.609Z,8.68
2023-04-18T01:40:07.972Z,8.63
2023-04-18T01:43:34.986Z,8.59
2023-04-18T01:47:14.935Z,8.56
2023-04-18T01:50:56.903Z,8.53
2023-04-18T01:54:31.944Z,8.47
2023-04-18T01:58:49.496Z,8.41
2023-04-18T02:02:42.362Z,8.35
2023-04-18T02:06:16.962Z,8.29
2023-04-18T02:09:48.957Z,8.21
2023-04-18T02:13:05.893Z,8.14
2023-04-18T02:20:18.965Z,7.97
2023-04-18T02:24:06.959Z,7.89
2023-04-18T02:27:37.958Z,7.81
2023-04-18T02:30:46.899Z,7.75
2023-04-18T02:34:07.956Z,7.66
2023-04-18T02:37:59.887Z,7.59
2023-04-18T02:41:36.974Z,7.49
2023-04-18T02:45:13.925Z,7.41
2023-04-18T02:48:34.991Z,7.37
2023-04-18T02:52:25.916Z,7.34
2023-04-18T02:56:00.003Z,7.38
2023-04-18T02:59:30.902Z,7.46
2023-04-18T03:07:07.275Z,7.52
2023-04-18T03:10:51.900Z,7.55
2023-04-18T03:14:13.836Z,7.57
2023-04-18T03:17:45.929Z,7.60
2023-04-18T03:21:17.420Z,7.61
2023-04-18T03:25:12.484Z,7.61
2023-04-18T03:28:51.006Z,7.61
2023-04-18T03:32:29.918Z,7.62
2023-04-18T03:36:06.079Z,7.64
2023-04-18T03:39:46.921Z,7.64
2023-04-18T03:43:33.789Z,7.65
2023-04-18T03:47:11.929Z,7.65
2023-04-18T03:50:54.898Z,7.67
2023-04-18T03:54:50.982Z,7.75
2023-04-18T04:02:36.147Z,7.85
2023-04-18T04:06:27.988Z,7.91
2023-04-18T04:09:45.115Z,7.92
2023-04-18T04:12:13.391Z,7.93
2023-04-18T04:14:41.584Z,7.94
2023-04-18T04:17:10.228Z,7.94
2023-04-18T04:19:39.452Z,7.95
2023-04-18T04:22:13.564Z,7.98
2023-04-18T04:24:42.762Z,8.03
2023-04-18T04:27:13.510Z,8.05
2023-04-18T04:30:20.333Z,8.05
2023-04-18T04:34:02.841Z,7.98
2023-04-18T04:37:32.000Z,7.94
2023-04-18T04:40:49.917Z,7.96
2023-04-18T04:44:45.007Z,8.01
2023-04-18T04:48:44.825Z,8.09
2023-04-18T04:52:31.975Z,8.15
2023-04-18T04:56:24.912Z,8.23
2023-04-18T05:00:11.964Z,8.29
2023-04-18T05:08:00.951Z,8.38
2023-04-18T05:18:35.140Z,8.52
2023-04-18T05:22:14.980Z,8.58
2023-04-18T05:29:15.441Z,8.72
2023-04-18T05:31:43.571Z,8.76
2023-04-18T05:34:11.805Z,8.81
2023-04-18T05:36:40.490Z,8.85
2023-04-18T05:39:08.578Z,8.85
2023-04-18T05:41:36.494Z,8.80
2023-04-18T05:44:05.870Z,8.77
2023-04-18T05:46:34.186Z,8.80
2023-04-18T05:49:02.535Z,8.84
2023-04-18T05:51:31.365Z,8.90
2023-04-18T05:53:59.364Z,8.92
2023-04-18T05:56:27.373Z,8.95
2023-04-18T05:58:55.964Z,8.98
2023-04-18T06:01:23.893Z,8.98
2023-04-18T06:03:52.083Z,8.97
2023-04-18T06:06:20.409Z,9.00
2023-04-18T06:08:48.274Z,9.01
2023-04-18T06:11:16.294Z,9.04
2023-04-18T06:13:44.236Z,9.11
2023-04-18T06:16:12.770Z,9.16
2023-04-18T06:18:43.881Z,9.12
2023-04-18T06:21:13.192Z,9.09
2023-04-18T06:23:41.303Z,9.11
2023-04-18T06:26:11.428Z,9.17
2023-04-18T06:28:39.644Z,9.25
2023-04-18T06:31:09.838Z,9.37
2023-04-18T06:33:38.045Z,9.48
2023-04-18T06:36:07.190Z,9.59
2023-04-18T06:38:35.049Z,9.69
2023-04-18T06:41:02.972Z,9.79
2023-04-18T06:43:33.139Z,9.90
2023-04-18T06:46:06.590Z,10.00
2023-04-18T06:48:36.227Z,10.12
2023-04-18T06:51:05.607Z,10.21
2023-04-18T06:53:33.540Z,10.30
2023-04-18T06:56:01.452Z,10.39
2023-04-18T06:58:30.217Z,10.45
2023-04-18T07:00:58.066Z,10.48
2023-04-18T07:03:26.998Z,10.53
2023-04-18T07:06:01.596Z,10.61
2023-04-18T07:08:34.614Z,10.68
2023-04-18T07:11:06.082Z,10.70
2023-04-18T07:13:34.079Z,10.74
2023-04-18T07:16:27.225Z,10.74
2023-04-18T07:18:58.884Z,10.79
2023-04-18T07:22:00.628Z,10.81
2023-04-18T07:25:13.304Z,10.85
2023-04-18T07:28:27.473Z,10.97
2023-04-18T07:31:15.575Z,11.08
2023-04-18T07:33:49.976Z,11.18
2023-04-18T07:36:42.797Z,11.25
2023-04-18T07:39:11.317Z,11.35
2023-04-18T07:41:46.442Z,11.41
2023-04-18T07:44:14.716Z,11.50
2023-04-18T07:46:43.144Z,11.59
2023-04-18T07:49:11.265Z,11.67
2023-04-18T07:51:39.399Z,11.73
2023-04-18T07:54:07.291Z,11.80
2023-04-18T07:56:35.184Z,11.89
2023-04-18T07:59:03.082Z,11.94
2023-04-18T08:01:31.571Z,11.99
2023-04-18T08:04:02.051Z,12.03
2023-04-18T08:06:33.592Z,12.10
2023-04-18T08:09:13.276Z,12.16
2023-04-18T08:11:45.130Z,12.21
2023-04-18T08:14:28.205Z,12.20
2023-04-18T08:18:03.199Z,12.25
2023-04-18T08:20:41.464Z,12.38
2023-04-18T08:23:15.671Z,12.46
2023-04-18T08:26:19.252Z,12.52
2023-04-18T08:30:18.054Z,12.63
2023-04-18T08:42:09.594Z,12.90
2023-04-18T08:48:41.804Z,13.07
2023-04-18T08:51:24.524Z,13.14
2023-04-18T08:54:11.535Z,13.23
2023-04-18T08:59:53.019Z,13.45
2023-04-18T09:02:42.922Z,13.62
2023-04-18T09:05:14.504Z,13.74
2023-04-18T09:07:43.087Z,13.79
2023-04-18T09:10:12.693Z,13.88
2023-04-18T09:13:05.580Z,13.99
2023-04-18T09:15:36.068Z,14.12
2023-04-18T09:18:10.401Z,14.31
2023-04-18T09:20:47.582Z,14.29
2023-04-18T09:23:27.612Z,13.98
2023-04-18T09:26:05.877Z,13.92
2023-04-18T09:28:35.174Z,13.99
2023-04-18T09:31:22.679Z,14.20
2023-04-18T09:34:29.422Z,14.18
2023-04-18T09:48:30.051Z,15.13
2023-04-18T09:55:19.982Z,15.78
2023-04-18T10:02:58.932Z,16.30
2023-04-18T10:06:43.642Z,16.57
2023-04-18T10:10:02.076Z,16.70
2023-04-18T10:13:35.897Z,16.65
2023-04-18T10:17:09.174Z,16.81
2023-04-18T10:20:56.280Z,16.96
2023-04-18T10:24:26.956Z,17.17
2023-04-18T10:31:18.090Z,17.66
2023-04-18T10:34:54.112Z,17.93
2023-04-18T10:45:01.186Z,18.17
2023-04-18T11:10:27.959Z,20.59
2023-04-18T11:12:56.593Z,21.44
2023-04-18T11:15:25.774Z,21.52
2023-04-18T11:18:00.820Z,21.36
2023-04-18T11:20:38.363Z,21.38
2023-04-18T11:23:20.362Z,21.42
2023-04-18T11:25:53.727Z,21.46
2023-04-18T11:28:25.032Z,21.55
2023-04-18T11:30:59.102Z,22.01
2023-04-18T11:33:29.397Z,22.37
2023-04-18T11:35:59.556Z,22.57
2023-04-18T11:38:31.002Z,22.92
2023-04-18T11:40:59.178Z,23.30
2023-04-18T11:43:42.872Z,23.44
2023-04-18T11:46:41.846Z,23.51
2023-04-18T11:49:25.237Z,23.73
2023-04-18T11:52:11.156Z,24.05
2023-04-18T11:54:43.195Z,24.34
2023-04-18T11:57:24.055Z,24.23
2023-04-18T11:59:58.290Z,23.95
2023-04-18T12:02:40.916Z,23.46
2023-04-18T12:05:11.257Z,23.66
2023-04-18T12:07:47.917Z,23.96
2023-04-18T12:10:27.739Z,24.34
2023-04-18T12:12:58.891Z,24.73
2023-04-18T12:15:29.131Z,25.18
2023-04-18T12:18:12.110Z,25.46
2023-04-18T12:20:47.699Z,25.50
2023-04-18T12:27:12.562Z,25.70
2023-04-18T12:34:15.122Z,24.74
2023-04-18T12:37:54.404Z,24.83
2023-04-18T12:41:30.027Z,24.73
2023-04-18T12:44:51.915Z,24.94
2023-04-18T12:48:07.247Z,25.45
2023-04-18T12:51:10.863Z,26.06
2023-04-18T12:53:56.616Z,26.30
2023-04-18T12:56:58.908Z,26.24
2023-04-18T13:00:26.856Z,26.47
2023-04-18T13:04:08.312Z,26.96
2023-04-18T13:06:46.298Z,27.29
2023-04-18T13:09:55.780Z,27.27
2023-04-18T13:19:26.471Z,28.00
2023-04-18T13:22:55.109Z,28.10
2023-04-18T13:29:00.003Z,27.57
2023-04-18T13:31:29.104Z,25.97
2023-04-18T13:33:57.892Z,25.17
2023-04-18T13:36:31.892Z,24.83
2023-04-18T13:39:00.709Z,25.05
2023-04-18T13:41:28.951Z,25.05
2023-04-18T13:43:56.926Z,24.30
2023-04-18T13:46:27.412Z,23.31
2023-04-18T13:48:55.545Z,23.24
2023-04-18T13:51:23.577Z,23.51
2023-04-18T13:53:52.160Z,24.00
2023-04-18T13:56:20.354Z,24.52
2023-04-18T13:58:48.299Z,24.93
2023-04-18T14:01:16.605Z,25.21
2023-04-18T14:03:44.968Z,25.70
2023-04-18T14:06:13.675Z,25.71
2023-04-18T14:08:46.608Z,25.63
2023-04-18T14:11:14.605Z,25.45
2023-04-18T14:13:42.667Z,25.59
2023-04-18T14:16:10.966Z,25.62
2023-04-18T14:18:39.485Z,26.00
2023-04-18T14:21:07.476Z,25.34
2023-04-18T14:23:35.745Z,24.21
2023-04-18T14:26:05.009Z,23.33
2023-04-18T14:28:33.082Z,22.74
2023-04-18T14:31:02.799Z,21.99
2023-04-18T14:33:31.120Z,21.84
2023-04-18T14:35:59.070Z,22.22
2023-04-18T14:38:27.480Z,22.67
2023-04-18T14:40:55.927Z,23.09
2023-04-18T14:43:24.034Z,23.42
2023-04-18T14:45:51.909Z,23.93
2023-04-18T14:48:19.908Z,24.50
2023-04-18T14:50:56.303Z,24.55
2023-04-18T14:53:24.839Z,25.57
2023-04-18T14:55:52.900Z,26.48
2023-04-18T14:58:21.113Z,26.61
2023-04-18T15:00:49.229Z,26.44
2023-04-18T15:03:17.277Z,26.28
2023-04-18T15:05:48.326Z,25.91
2023-04-18T15:08:16.543Z,25.67
2023-04-18T15:10:44.644Z,25.64
2023-04-18T15:13:12.503Z,25.18
2023-04-18T15:15:40.497Z,24.56
2023-04-18T15:18:08.915Z,24.01
2023-04-18T15:20:37.255Z,23.46
2023-04-18T15:30:13.914Z,22.30
2023-04-18T15:33:20.982Z,21.64
2023-04-18T15:36:24.686Z,20.93
2023-04-18T15:40:28.086Z,20.65
2023-04-18T15:44:07.840Z,20.03
2023-04-18T15:47:03.557Z,19.62
2023-04-18T15:49:31.994Z,19.31
2023-04-18T15:52:03.351Z,19.04
2023-04-18T15:54:31.242Z,18.78
2023-04-18T15:56:59.142Z,18.59
2023-04-18T15:59:27.120Z,18.37
2023-04-18T16:01:55.217Z,18.19
2023-04-18T16:04:24.156Z,17.97
2023-04-18T16:06:52.189Z,17.79
2023-04-18T16:09:20.049Z,17.63
2023-04-18T16:12:24.062Z,17.41
2023-04-18T16:16:14.024Z,17.06
2023-04-18T16:20:14.631Z,16.63
2023-04-18T16:23:40.909Z,16.23
2023-04-18T16:34:09.797Z,15.30
2023-04-18T16:37:31.236Z,15.08
2023-04-18T16:44:57.139Z,14.61
2023-04-18T16:47:25.086Z,14.47
2023-04-18T16:49:55.513Z,14.40
2023-04-18T16:52:24.308Z,14.31
2023-04-18T16:54:53.480Z,14.22
2023-04-18T16:57:21.296Z,14.13
2023-04-18T16:59:49.258Z,14.03
2023-04-18T17:02:17.341Z,13.94
2023-04-18T17:04:45.961Z,13.85
2023-04-18T17:07:16.453Z,13.77
2023-04-18T17:09:45.112Z,13.71
2023-04-18T17:12:13.511Z,13.65
2023-04-18T17:14:41.399Z,13.60
2023-04-18T17:17:09.271Z,13.53
2023-04-18T17:19:37.715Z,13.50
2023-04-18T17:22:05.819Z,13.48
2023-04-18T17:24:33.829Z,13.46
2023-04-18T17:27:02.005Z,13.42
2023-04-18T17:29:29.926Z,13.36
2023-04-18T17:31:57.800Z,13.26
2023-04-18T17:34:25.903Z,13.17
2023-04-18T17:36:53.830Z,13.13
2023-04-18T17:39:23.953Z,13.08
2023-04-18T17:41:51.783Z,13.03
2023-04-18T17:44:19.667Z,12.97
2023-04-18T17:46:48.961Z,12.90
2023-04-18T17:49:18.583Z,12.86
2023-04-18T17:51:46.550Z,12.84
2023-04-18T17:54:14.366Z,12.80
2023-04-18T17:56:42.256Z,12.77
2023-04-18T17:59:10.895Z,12.75
2023-04-18T18:01:40.637Z,12.73
2023-04-18T18:04:08.624Z,12.70
2023-04-18T18:06:36.551Z,12.66
2023-04-18T18:09:04.522Z,12.64
2023-04-18T18:11:32.433Z,12.62
2023-04-18T18:14:00.760Z,12.59
2023-04-18T18:16:28.674Z,12.56
2023-04-18T18:18:56.598Z,12.53
2023-04-18T18:21:24.498Z,12.51
2023-04-18T18:24:21.943Z,12.48
2023-04-18T18:27:54.878Z,12.42
2023-04-18T18:31:36.977Z,12.38
2023-04-18T18:35:30.174Z,12.36
2023-04-18T18:46:55.872Z,12.31
2023-04-18T18:57:06.911Z,12.30
2023-04-18T19:00:43.911Z,12.29
2023-04-18T19:15:43.002Z,12.19
2023-04-18T19:23:14.322Z,12.13
2023-04-18T19:27:25.893Z,12.10
2023-04-18T19:31:08.156Z,12.08
2023-04-18T19:45:32.800Z,12.05
2023-04-18T19:48:25.987Z,12.02
2023-04-18T19:51:08.233Z,12.01
2023-04-18T19:54:05.319Z,12.01
2023-04-18T19:56:55.123Z,12.02
2023-04-18T19:59:50.430Z,12.03
2023-04-18T20:02:47.070Z,12.02
2023-04-18T20:05:45.880Z,11.99
2023-04-18T20:08:44.106Z,11.97
2023-04-18T20:12:15.029Z,11.94
2023-04-18T20:15:03.724Z,11.87
2023-04-18T20:18:11.830Z,11.83
2023-04-18T20:21:02.251Z,11.78
2023-04-18T20:24:28.002Z,11.71
2023-04-18T20:27:29.615Z,11.63
2023-04-18T20:30:41.542Z,11.58
2023-04-18T20:33:36.732Z,11.52
2023-04-18T20:37:10.742Z,11.46
2023-04-18T20:40:39.005Z,11.39
2023-04-18T20:43:48.184Z,11.34
2023-04-18T20:47:03.152Z,11.30
2023-04-18T20:50:15.625Z,11.26
2023-04-18T20:53:49.944Z,11.20
2023-04-18T21:04:38.253Z,11.10
2023-04-18T21:11:28.019Z,11.02
2023-04-18T21:15:22.279Z,10.97
2023-04-18T21:26:43.976Z,10.82
2023-04-18T21:30:28.983Z,10.75
2023-04-18T21:37:19.058Z,10.71
2023-04-18T21:39:47.136Z,10.65
2023-04-18T21:42:15.043Z,10.61
2023-04-18T21:44:42.921Z,10.55
2023-04-18T21:47:10.843Z,10.51
2023-04-18T21:49:38.807Z,10.49
2023-04-18T21:52:07.722Z,10.47
2023-04-18T21:54:35.849Z,10.46
2023-04-18T21:57:05.855Z,10.45
2023-04-18T21:59:33.816Z,10.42
2023-04-18T22:02:01.863Z,10.37
2023-04-18T22:04:29.906Z,10.35
2023-04-18T22:06:57.853Z,10.32
2023-04-18T22:09:25.855Z,10.30
2023-04-18T22:11:57.060Z,10.27
2023-04-18T22:14:26.144Z,10.25
2023-04-18T22:16:54.684Z,10.23
2023-04-18T22:19:22.735Z,10.21
2023-04-18T22:21:51.080Z,10.19
2023-04-18T22:24:19.651Z,10.18
2023-04-18T22:26:47.935Z,10.15
2023-04-18T22:29:16.001Z,10.14
2023-04-18T22:31:43.856Z,10.12
2023-04-18T22:34:11.817Z,10.10
2023-04-18T22:36:39.967Z,10.07
2023-04-18T22:39:08.026Z,10.06
2023-04-18T22:41:35.961Z,10.04
2023-04-18T22:44:04.824Z,10.03
2023-04-18T22:46:32.968Z,10.01
2023-04-18T22:53:26.247Z,9.95
2023-04-18T22:57:16.471Z,9.92
2023-04-18T23:04:42.913Z,9.92
2023-04-18T23:08:25.004Z,9.88
2023-04-18T23:12:07.701Z,9.86
2023-04-18T23:15:41.810Z,9.85
2023-04-18T23:19:21.799Z,9.82
2023-04-18T23:23:08.129Z,9.79
2023-04-18T23:27:00.758Z,9.78
2023-04-18T23:31:01.449Z,9.77
2023-04-18T23:34:59.817Z,9.74
2023-04-18T23:38:34.971Z,9.71
2023-04-18T23:42:32.684Z,9.66
2023-04-18T23:54:24.790Z,9.57
2023-04-18T23:58:07.319Z,9.56
